sensor_id;sensor_type;location;lat;lon;timestamp;temperature;humidity
76787;DHT22;65739;51.482;5.702;2024-01-30T00:01:39;6.90;99.90
76787;DHT22;65739;51.482;5.702;2024-01-30T00:04:05;6.90;99.90
76787;DHT22;65739;51.482;5.702;2024-01-30T00:06:31;6.90;99.90
76787;DHT22;65739;51.482;5.702;2024-01-30T00:08:57;6.90;99.90
76787;DHT22;65739;51.482;5.702;2024-01-30T00:11:23;6.90;99.90
76787;DHT22;65739;51.482;5.702;2024-01-30T00:13:51;6.90;99.90
76787;DHT22;65739;51.482;5.702;2024-01-30T00:16:21;6.90;99.90
76787;DHT22;65739;51.482;5.702;2024-01-30T00:18:48;6.80;99.90
76787;DHT22;65739;51.482;5.702;2024-01-30T00:21:14;6.80;99.90
76787;DHT22;65739;51.482;5.702;2024-01-30T00:23:39;6.80;99.90
76787;DHT22;65739;51.482;5.702;2024-01-30T00:26:05;6.80;99.90
76787;DHT22;65739;51.482;5.702;2024-01-30T00:28:34;6.70;99.90
76787;DHT22;65739;51.482;5.702;2024-01-30T00:30:59;6.70;99.90
76787;DHT22;65739;51.482;5.702;2024-01-30T00:33:25;6.70;99.90
76787;DHT22;65739;51.482;5.702;2024-01-30T00:35:51;6.60;99.90
76787;DHT22;65739;51.482;5.702;2024-01-30T00:38:16;6.70;99.90
76787;DHT22;65739;51.482;5.702;2024-01-30T00:40:43;6.60;99.90
76787;DHT22;65739;51.482;5.702;2024-01-30T00:43:08;6.60;99.90
76787;DHT22;65739;51.482;5.702;2024-01-30T00:45:34;6.50;99.90
76787;DHT22;65739;51.482;5.702;2024-01-30T00:48:00;6.50;99.90
76787;DHT22;65739;51.482;5.702;2024-01-30T00:50:25;6.50;99.90
76787;DHT22;65739;51.482;5.702;2024-01-30T00:52:51;6.50;99.90
76787;DHT22;65739;51.482;5.702;2024-01-30T00:55:17;6.50;99.90
76787;DHT22;65739;51.482;5.702;2024-01-30T00:57:42;6.50;99.90
76787;DHT22;65739;51.482;5.702;2024-01-30T01:00:08;6.40;99.90
76787;DHT22;65739;51.482;5.702;2024-01-30T01:02:38;6.40;99.90
76787;DHT22;65739;51.482;5.702;2024-01-30T01:05:05;6.40;99.90
76787;DHT22;65739;51.482;5.702;2024-01-30T01:07:31;6.40;99.90
76787;DHT22;65739;51.482;5.702;2024-01-30T01:09:56;6.40;99.90
76787;DHT22;65739;51.482;5.702;2024-01-30T01:12:22;6.30;99.90
76787;DHT22;65739;51.482;5.702;2024-01-30T01:14:48;6.30;99.90
76787;DHT22;65739;51.482;5.702;2024-01-30T01:17:13;6.40;99.90
76787;DHT22;65739;51.482;5.702;2024-01-30T01:19:39;6.40;99.90
76787;DHT22;65739;51.482;5.702;2024-01-30T01:22:05;6.40;99.90
76787;DHT22;65739;51.482;5.702;2024-01-30T01:24:33;6.40;99.90
76787;DHT22;65739;51.482;5.702;2024-01-30T01:26:59;6.40;99.90
76787;DHT22;65739;51.482;5.702;2024-01-30T01:29:25;6.50;99.90
76787;DHT22;65739;51.482;5.702;2024-01-30T01:31:58;6.40;99.90
76787;DHT22;65739;51.482;5.702;2024-01-30T01:34:23;6.50;99.90
76787;DHT22;65739;51.482;5.702;2024-01-30T01:36:50;6.60;99.90
76787;DHT22;65739;51.482;5.702;2024-01-30T01:39:16;6.50;99.90
76787;DHT22;65739;51.482;5.702;2024-01-30T01:41:42;6.50;99.90
76787;DHT22;65739;51.482;5.702;2024-01-30T01:44:08;6.50;99.90
76787;DHT22;65739;51.482;5.702;2024-01-30T01:46:34;6.60;99.90
76787;DHT22;65739;51.482;5.702;2024-01-30T01:49:05;6.60;99.90
76787;DHT22;65739;51.482;5.702;2024-01-30T01:51:33;6.60;99.90
76787;DHT22;65739;51.482;5.702;2024-01-30T01:54:02;6.60;99.90
76787;DHT22;65739;51.482;5.702;2024-01-30T01:56:29;6.60;99.90
76787;DHT22;65739;51.482;5.702;2024-01-30T01:58:55;6.60;99.90
76787;DHT22;65739;51.482;5.702;2024-01-30T02:01:25;6.50;99.90
76787;DHT22;65739;51.482;5.702;2024-01-30T02:03:52;6.50;99.90
76787;DHT22;65739;51.482;5.702;2024-01-30T02:06:18;6.60;99.90
76787;DHT22;65739;51.482;5.702;2024-01-30T02:08:44;6.60;99.90
76787;DHT22;65739;51.482;5.702;2024-01-30T02:11:10;6.70;99.90
76787;DHT22;65739;51.482;5.702;2024-01-30T02:13:36;6.70;99.90
76787;DHT22;65739;51.482;5.702;2024-01-30T02:16:03;6.70;99.90
76787;DHT22;65739;51.482;5.702;2024-01-30T02:18:29;6.70;99.90
76787;DHT22;65739;51.482;5.702;2024-01-30T02:20:56;6.70;99.90
76787;DHT22;65739;51.482;5.702;2024-01-30T02:23:24;6.70;99.90
76787;DHT22;65739;51.482;5.702;2024-01-30T02:25:53;6.60;99.90
76787;DHT22;65739;51.482;5.702;2024-01-30T02:28:39;6.50;99.90
76787;DHT22;65739;51.482;5.702;2024-01-30T02:31:12;6.50;99.90
76787;DHT22;65739;51.482;5.702;2024-01-30T02:33:38;6.50;99.90
76787;DHT22;65739;51.482;5.702;2024-01-30T02:36:04;6.40;99.90
76787;DHT22;65739;51.482;5.702;2024-01-30T02:38:29;6.40;99.90
76787;DHT22;65739;51.482;5.702;2024-01-30T02:40:55;6.40;99.90
76787;DHT22;65739;51.482;5.702;2024-01-30T02:43:22;6.40;99.90
76787;DHT22;65739;51.482;5.702;2024-01-30T02:45:47;6.40;99.90
76787;DHT22;65739;51.482;5.702;2024-01-30T02:48:13;6.30;99.90
76787;DHT22;65739;51.482;5.702;2024-01-30T02:50:39;6.20;99.90
76787;DHT22;65739;51.482;5.702;2024-01-30T02:53:04;6.30;99.90
76787;DHT22;65739;51.482;5.702;2024-01-30T02:55:30;6.30;99.90
76787;DHT22;65739;51.482;5.702;2024-01-30T02:57:56;6.30;99.90
76787;DHT22;65739;51.482;5.702;2024-01-30T03:00:21;6.30;99.90
76787;DHT22;65739;51.482;5.702;2024-01-30T03:02:47;6.30;99.90
76787;DHT22;65739;51.482;5.702;2024-01-30T03:05:13;6.30;99.90
76787;DHT22;65739;51.482;5.702;2024-01-30T03:07:39;6.30;99.90
76787;DHT22;65739;51.482;5.702;2024-01-30T03:10:05;6.40;99.90
76787;DHT22;65739;51.482;5.702;2024-01-30T03:12:32;6.40;99.90
76787;DHT22;65739;51.482;5.702;2024-01-30T03:14:58;6.40;99.90
76787;DHT22;65739;51.482;5.702;2024-01-30T03:17:23;6.50;99.90
76787;DHT22;65739;51.482;5.702;2024-01-30T03:19:49;6.60;99.90
76787;DHT22;65739;51.482;5.702;2024-01-30T03:22:15;6.60;99.90
76787;DHT22;65739;51.482;5.702;2024-01-30T03:24:41;6.60;99.90
76787;DHT22;65739;51.482;5.702;2024-01-30T03:27:07;6.70;99.90
76787;DHT22;65739;51.482;5.702;2024-01-30T03:29:33;6.60;99.90
76787;DHT22;65739;51.482;5.702;2024-01-30T03:31:58;6.60;99.90
76787;DHT22;65739;51.482;5.702;2024-01-30T03:34:27;6.60;99.90
76787;DHT22;65739;51.482;5.702;2024-01-30T03:36:52;6.60;99.90
76787;DHT22;65739;51.482;5.702;2024-01-30T03:39:22;6.60;99.90
76787;DHT22;65739;51.482;5.702;2024-01-30T03:41:48;6.60;99.90
76787;DHT22;65739;51.482;5.702;2024-01-30T03:44:13;6.70;99.90
76787;DHT22;65739;51.482;5.702;2024-01-30T03:46:39;6.70;99.90
76787;DHT22;65739;51.482;5.702;2024-01-30T03:49:05;6.70;99.90
76787;DHT22;65739;51.482;5.702;2024-01-30T03:51:30;6.70;99.90
76787;DHT22;65739;51.482;5.702;2024-01-30T03:53:56;6.70;99.90
76787;DHT22;65739;51.482;5.702;2024-01-30T03:56:22;6.70;99.90
76787;DHT22;65739;51.482;5.702;2024-01-30T03:58:48;6.80;99.90
76787;DHT22;65739;51.482;5.702;2024-01-30T04:01:14;6.80;99.90
76787;DHT22;65739;51.482;5.702;2024-01-30T04:03:40;6.90;99.90
76787;DHT22;65739;51.482;5.702;2024-01-30T04:06:06;6.90;99.90
76787;DHT22;65739;51.482;5.702;2024-01-30T04:08:32;7.00;99.90
76787;DHT22;65739;51.482;5.702;2024-01-30T04:10:58;7.10;99.90
76787;DHT22;65739;51.482;5.702;2024-01-30T04:13:23;7.10;99.90
76787;DHT22;65739;51.482;5.702;2024-01-30T04:15:49;7.20;99.90
76787;DHT22;65739;51.482;5.702;2024-01-30T04:18:15;7.30;99.90
76787;DHT22;65739;51.482;5.702;2024-01-30T04:20:43;7.30;99.90
76787;DHT22;65739;51.482;5.702;2024-01-30T04:23:10;7.30;99.90
76787;DHT22;65739;51.482;5.702;2024-01-30T04:25:36;7.40;99.90
76787;DHT22;65739;51.482;5.702;2024-01-30T04:28:02;7.50;99.90
76787;DHT22;65739;51.482;5.702;2024-01-30T04:30:28;7.50;99.90
76787;DHT22;65739;51.482;5.702;2024-01-30T04:32:53;7.50;99.90
76787;DHT22;65739;51.482;5.702;2024-01-30T04:35:19;7.50;99.90
76787;DHT22;65739;51.482;5.702;2024-01-30T04:37:48;7.50;99.90
76787;DHT22;65739;51.482;5.702;2024-01-30T04:40:14;7.40;99.90
76787;DHT22;65739;51.482;5.702;2024-01-30T04:42:40;7.40;99.90
76787;DHT22;65739;51.482;5.702;2024-01-30T04:45:06;7.40;99.90
76787;DHT22;65739;51.482;5.702;2024-01-30T04:47:32;7.40;99.90
76787;DHT22;65739;51.482;5.702;2024-01-30T04:49:58;7.30;99.90
76787;DHT22;65739;51.482;5.702;2024-01-30T04:52:23;7.30;99.90
76787;DHT22;65739;51.482;5.702;2024-01-30T04:54:49;7.30;99.90
76787;DHT22;65739;51.482;5.702;2024-01-30T04:57:15;7.30;99.90
76787;DHT22;65739;51.482;5.702;2024-01-30T04:59:40;7.20;99.90
76787;DHT22;65739;51.482;5.702;2024-01-30T05:02:06;7.30;99.90
76787;DHT22;65739;51.482;5.702;2024-01-30T05:04:32;7.30;99.90
76787;DHT22;65739;51.482;5.702;2024-01-30T05:06:58;7.30;99.90
76787;DHT22;65739;51.482;5.702;2024-01-30T05:09:24;7.30;99.90
76787;DHT22;65739;51.482;5.702;2024-01-30T05:11:49;7.50;99.90
76787;DHT22;65739;51.482;5.702;2024-01-30T05:14:15;7.50;99.90
76787;DHT22;65739;51.482;5.702;2024-01-30T05:16:41;7.50;99.90
76787;DHT22;65739;51.482;5.702;2024-01-30T05:19:12;7.60;99.90
76787;DHT22;65739;51.482;5.702;2024-01-30T05:21:38;7.60;99.90
76787;DHT22;65739;51.482;5.702;2024-01-30T05:24:04;7.70;99.90
76787;DHT22;65739;51.482;5.702;2024-01-30T05:26:29;7.80;99.90
76787;DHT22;65739;51.482;5.702;2024-01-30T05:28:55;7.80;99.90
76787;DHT22;65739;51.482;5.702;2024-01-30T05:31:21;7.80;99.90
76787;DHT22;65739;51.482;5.702;2024-01-30T05:33:47;7.80;99.90
76787;DHT22;65739;51.482;5.702;2024-01-30T05:36:12;7.90;99.90
76787;DHT22;65739;51.482;5.702;2024-01-30T05:38:39;8.00;99.90
76787;DHT22;65739;51.482;5.702;2024-01-30T05:41:05;8.00;99.90
76787;DHT22;65739;51.482;5.702;2024-01-30T05:43:30;8.00;99.90
76787;DHT22;65739;51.482;5.702;2024-01-30T05:45:56;8.10;99.90
76787;DHT22;65739;51.482;5.702;2024-01-30T05:48:22;8.10;99.90
76787;DHT22;65739;51.482;5.702;2024-01-30T05:50:47;8.00;99.90
76787;DHT22;65739;51.482;5.702;2024-01-30T05:53:13;8.10;99.90
76787;DHT22;65739;51.482;5.702;2024-01-30T05:55:39;8.10;99.90
76787;DHT22;65739;51.482;5.702;2024-01-30T05:58:04;8.00;99.90
76787;DHT22;65739;51.482;5.702;2024-01-30T06:00:30;8.00;99.90
76787;DHT22;65739;51.482;5.702;2024-01-30T06:02:55;7.90;99.90
76787;DHT22;65739;51.482;5.702;2024-01-30T06:05:21;8.00;99.90
76787;DHT22;65739;51.482;5.702;2024-01-30T06:07:47;8.00;99.90
76787;DHT22;65739;51.482;5.702;2024-01-30T06:10:12;8.00;99.90
76787;DHT22;65739;51.482;5.702;2024-01-30T06:12:38;8.00;99.90
76787;DHT22;65739;51.482;5.702;2024-01-30T06:15:04;8.10;99.90
76787;DHT22;65739;51.482;5.702;2024-01-30T06:17:30;8.00;99.90
76787;DHT22;65739;51.482;5.702;2024-01-30T06:19:55;8.00;99.90
76787;DHT22;65739;51.482;5.702;2024-01-30T06:22:21;8.00;99.90
76787;DHT22;65739;51.482;5.702;2024-01-30T06:24:47;8.00;99.90
76787;DHT22;65739;51.482;5.702;2024-01-30T06:27:15;7.90;99.90
76787;DHT22;65739;51.482;5.702;2024-01-30T06:29:42;7.90;99.90
76787;DHT22;65739;51.482;5.702;2024-01-30T06:32:08;8.00;99.90
76787;DHT22;65739;51.482;5.702;2024-01-30T06:34:33;8.00;99.90
76787;DHT22;65739;51.482;5.702;2024-01-30T06:36:59;7.90;99.90
76787;DHT22;65739;51.482;5.702;2024-01-30T06:39:26;7.90;99.90
76787;DHT22;65739;51.482;5.702;2024-01-30T06:41:52;8.00;99.90
76787;DHT22;65739;51.482;5.702;2024-01-30T06:44:17;7.90;99.90
76787;DHT22;65739;51.482;5.702;2024-01-30T06:46:43;8.00;99.90
76787;DHT22;65739;51.482;5.702;2024-01-30T06:49:08;7.90;99.90
76787;DHT22;65739;51.482;5.702;2024-01-30T06:51:34;8.50;99.90
76787;DHT22;65739;51.482;5.702;2024-01-30T06:54:00;7.70;99.90
76787;DHT22;65739;51.482;5.702;2024-01-30T06:56:25;7.70;99.90
76787;DHT22;65739;51.482;5.702;2024-01-30T06:58:51;7.70;99.90
76787;DHT22;65739;51.482;5.702;2024-01-30T07:01:16;7.70;99.90
76787;DHT22;65739;51.482;5.702;2024-01-30T07:03:45;7.60;99.90
76787;DHT22;65739;51.482;5.702;2024-01-30T07:06:10;7.60;99.90
76787;DHT22;65739;51.482;5.702;2024-01-30T07:08:41;7.70;99.90
76787;DHT22;65739;51.482;5.702;2024-01-30T07:11:06;7.70;99.90
76787;DHT22;65739;51.482;5.702;2024-01-30T07:13:34;7.80;99.90
76787;DHT22;65739;51.482;5.702;2024-01-30T07:16:00;8.00;99.90
76787;DHT22;65739;51.482;5.702;2024-01-30T07:18:25;8.10;99.90
76787;DHT22;65739;51.482;5.702;2024-01-30T07:20:51;8.10;99.90
76787;DHT22;65739;51.482;5.702;2024-01-30T07:23:32;8.10;99.90
76787;DHT22;65739;51.482;5.702;2024-01-30T07:26:04;8.30;99.90
76787;DHT22;65739;51.482;5.702;2024-01-30T07:28:30;8.40;99.90
76787;DHT22;65739;51.482;5.702;2024-01-30T07:30:56;8.50;99.90
76787;DHT22;65739;51.482;5.702;2024-01-30T07:33:22;8.60;99.90
76787;DHT22;65739;51.482;5.702;2024-01-30T07:35:47;8.70;99.90
76787;DHT22;65739;51.482;5.702;2024-01-30T07:38:13;8.90;99.90
76787;DHT22;65739;51.482;5.702;2024-01-30T07:40:39;8.90;99.90
76787;DHT22;65739;51.482;5.702;2024-01-30T07:43:06;8.80;99.90
76787;DHT22;65739;51.482;5.702;2024-01-30T07:45:32;9.00;99.90
76787;DHT22;65739;51.482;5.702;2024-01-30T07:47:59;9.00;99.90
76787;DHT22;65739;51.482;5.702;2024-01-30T07:50:27;9.10;99.90
76787;DHT22;65739;51.482;5.702;2024-01-30T07:52:56;9.30;99.90
76787;DHT22;65739;51.482;5.702;2024-01-30T07:55:23;9.30;99.90
76787;DHT22;65739;51.482;5.702;2024-01-30T07:57:56;9.30;99.90
76787;DHT22;65739;51.482;5.702;2024-01-30T08:00:33;9.40;99.90
76787;DHT22;65739;51.482;5.702;2024-01-30T08:03:06;9.40;99.90
76787;DHT22;65739;51.482;5.702;2024-01-30T08:05:48;9.40;99.90
76787;DHT22;65739;51.482;5.702;2024-01-30T08:08:14;9.40;99.90
76787;DHT22;65739;51.482;5.702;2024-01-30T08:10:40;9.50;99.90
76787;DHT22;65739;51.482;5.702;2024-01-30T08:13:06;9.50;99.90
76787;DHT22;65739;51.482;5.702;2024-01-30T08:15:31;9.60;99.90
76787;DHT22;65739;51.482;5.702;2024-01-30T08:17:57;9.60;99.90
76787;DHT22;65739;51.482;5.702;2024-01-30T08:20:25;9.70;99.90
76787;DHT22;65739;51.482;5.702;2024-01-30T08:22:51;9.70;99.90
76787;DHT22;65739;51.482;5.702;2024-01-30T08:25:16;9.70;99.90
76787;DHT22;65739;51.482;5.702;2024-01-30T08:27:42;9.80;99.90
76787;DHT22;65739;51.482;5.702;2024-01-30T08:30:08;9.80;99.90
76787;DHT22;65739;51.482;5.702;2024-01-30T08:32:33;9.90;99.90
76787;DHT22;65739;51.482;5.702;2024-01-30T08:34:59;9.90;99.90
76787;DHT22;65739;51.482;5.702;2024-01-30T08:37:29;9.90;99.90
76787;DHT22;65739;51.482;5.702;2024-01-30T08:39:54;9.90;99.90
76787;DHT22;65739;51.482;5.702;2024-01-30T08:42:20;9.90;99.90
76787;DHT22;65739;51.482;5.702;2024-01-30T08:44:51;9.90;99.90
76787;DHT22;65739;51.482;5.702;2024-01-30T08:47:18;10.00;99.90
76787;DHT22;65739;51.482;5.702;2024-01-30T08:49:44;10.10;99.90
76787;DHT22;65739;51.482;5.702;2024-01-30T08:52:11;10.10;99.90
76787;DHT22;65739;51.482;5.702;2024-01-30T08:54:36;10.20;99.90
76787;DHT22;65739;51.482;5.702;2024-01-30T08:57:02;10.20;99.90
76787;DHT22;65739;51.482;5.702;2024-01-30T08:59:28;10.20;99.90
76787;DHT22;65739;51.482;5.702;2024-01-30T09:01:54;10.20;99.90
76787;DHT22;65739;51.482;5.702;2024-01-30T09:04:21;10.20;99.90
76787;DHT22;65739;51.482;5.702;2024-01-30T09:06:48;10.30;99.90
76787;DHT22;65739;51.482;5.702;2024-01-30T09:09:14;10.30;99.90
76787;DHT22;65739;51.482;5.702;2024-01-30T09:11:40;10.40;99.90
76787;DHT22;65739;51.482;5.702;2024-01-30T09:14:06;10.40;99.90
76787;DHT22;65739;51.482;5.702;2024-01-30T09:16:32;10.40;99.90
76787;DHT22;65739;51.482;5.702;2024-01-30T09:18:57;10.40;99.90
76787;DHT22;65739;51.482;5.702;2024-01-30T09:21:23;10.60;99.90
76787;DHT22;65739;51.482;5.702;2024-01-30T09:23:49;10.50;99.90
76787;DHT22;65739;51.482;5.702;2024-01-30T09:26:14;10.60;99.90
76787;DHT22;65739;51.482;5.702;2024-01-30T09:28:40;10.60;99.90
76787;DHT22;65739;51.482;5.702;2024-01-30T09:31:12;10.70;99.90
76787;DHT22;65739;51.482;5.702;2024-01-30T09:33:38;10.70;99.90
76787;DHT22;65739;51.482;5.702;2024-01-30T09:36:05;10.70;99.90
76787;DHT22;65739;51.482;5.702;2024-01-30T09:38:31;10.70;99.90
76787;DHT22;65739;51.482;5.702;2024-01-30T09:41:02;10.80;99.90
76787;DHT22;65739;51.482;5.702;2024-01-30T09:43:32;10.80;99.90
76787;DHT22;65739;51.482;5.702;2024-01-30T09:46:00;10.80;99.90
76787;DHT22;65739;51.482;5.702;2024-01-30T09:48:27;10.80;99.90
76787;DHT22;65739;51.482;5.702;2024-01-30T09:50:53;10.80;99.90
76787;DHT22;65739;51.482;5.702;2024-01-30T09:53:20;10.70;99.90
76787;DHT22;65739;51.482;5.702;2024-01-30T09:55:47;10.80;99.90
76787;DHT22;65739;51.482;5.702;2024-01-30T09:58:12;10.90;99.90
76787;DHT22;65739;51.482;5.702;2024-01-30T10:00:39;10.90;99.90
76787;DHT22;65739;51.482;5.702;2024-01-30T10:03:04;10.90;99.90
76787;DHT22;65739;51.482;5.702;2024-01-30T10:05:31;10.90;99.90
76787;DHT22;65739;51.482;5.702;2024-01-30T10:07:59;10.90;99.90
76787;DHT22;65739;51.482;5.702;2024-01-30T10:10:25;10.90;99.90
76787;DHT22;65739;51.482;5.702;2024-01-30T10:12:50;10.90;99.90
76787;DHT22;65739;51.482;5.702;2024-01-30T10:15:17;11.00;99.90
76787;DHT22;65739;51.482;5.702;2024-01-30T10:17:44;11.20;99.90
76787;DHT22;65739;51.482;5.702;2024-01-30T10:20:10;11.30;99.90
76787;DHT22;65739;51.482;5.702;2024-01-30T10:22:36;11.40;99.90
76787;DHT22;65739;51.482;5.702;2024-01-30T10:25:02;11.60;99.90
76787;DHT22;65739;51.482;5.702;2024-01-30T10:27:28;11.70;99.90
76787;DHT22;65739;51.482;5.702;2024-01-30T10:29:55;11.80;99.90
76787;DHT22;65739;51.482;5.702;2024-01-30T10:32:21;11.80;99.90
76787;DHT22;65739;51.482;5.702;2024-01-30T10:34:47;11.80;99.90
76787;DHT22;65739;51.482;5.702;2024-01-30T10:37:13;11.80;99.90
76787;DHT22;65739;51.482;5.702;2024-01-30T10:39:42;11.70;99.90
76787;DHT22;65739;51.482;5.702;2024-01-30T10:42:12;11.90;99.90
76787;DHT22;65739;51.482;5.702;2024-01-30T10:47:31;11.70;99.90
76787;DHT22;65739;51.482;5.702;2024-01-30T10:49:59;11.70;99.90
76787;DHT22;65739;51.482;5.702;2024-01-30T10:52:26;11.60;99.90
76787;DHT22;65739;51.482;5.702;2024-01-30T10:54:54;11.70;99.90
76787;DHT22;65739;51.482;5.702;2024-01-30T10:57:23;11.70;99.90
76787;DHT22;65739;51.482;5.702;2024-01-30T10:59:49;11.70;99.90
76787;DHT22;65739;51.482;5.702;2024-01-30T11:02:16;11.80;99.90
76787;DHT22;65739;51.482;5.702;2024-01-30T11:04:43;11.90;99.90
76787;DHT22;65739;51.482;5.702;2024-01-30T11:07:18;11.90;99.90
76787;DHT22;65739;51.482;5.702;2024-01-30T11:09:53;11.90;99.90
76787;DHT22;65739;51.482;5.702;2024-01-30T11:12:26;11.80;99.90
76787;DHT22;65739;51.482;5.702;2024-01-30T11:15:08;11.80;99.90
76787;DHT22;65739;51.482;5.702;2024-01-30T11:17:47;11.90;99.90
76787;DHT22;65739;51.482;5.702;2024-01-30T11:20:22;12.00;99.90
76787;DHT22;65739;51.482;5.702;2024-01-30T11:22:55;12.20;99.90
76787;DHT22;65739;51.482;5.702;2024-01-30T11:25:22;12.20;99.90
76787;DHT22;65739;51.482;5.702;2024-01-30T11:27:52;12.50;99.90
76787;DHT22;65739;51.482;5.702;2024-01-30T11:33:07;12.50;99.90
76787;DHT22;65739;51.482;5.702;2024-01-30T11:35:44;12.60;99.90
76787;DHT22;65739;51.482;5.702;2024-01-30T11:38:13;12.40;99.90
76787;DHT22;65739;51.482;5.702;2024-01-30T11:40:42;12.20;99.90
76787;DHT22;65739;51.482;5.702;2024-01-30T11:43:09;12.20;99.90
76787;DHT22;65739;51.482;5.702;2024-01-30T11:45:35;12.10;99.90
76787;DHT22;65739;51.482;5.702;2024-01-30T11:48:05;12.20;99.90
76787;DHT22;65739;51.482;5.702;2024-01-30T11:50:35;12.30;99.90
76787;DHT22;65739;51.482;5.702;2024-01-30T11:53:01;12.40;99.90
76787;DHT22;65739;51.482;5.702;2024-01-30T11:55:27;12.40;99.90
76787;DHT22;65739;51.482;5.702;2024-01-30T11:57:57;12.40;99.90
76787;DHT22;65739;51.482;5.702;2024-01-30T12:00:24;12.50;99.90
76787;DHT22;65739;51.482;5.702;2024-01-30T12:02:54;12.50;99.90
76787;DHT22;65739;51.482;5.702;2024-01-30T12:05:23;12.50;99.90
76787;DHT22;65739;51.482;5.702;2024-01-30T12:07:49;12.60;99.90
76787;DHT22;65739;51.482;5.702;2024-01-30T12:10:15;12.60;99.90
76787;DHT22;65739;51.482;5.702;2024-01-30T12:12:43;12.60;99.90
76787;DHT22;65739;51.482;5.702;2024-01-30T12:15:10;12.70;99.90
76787;DHT22;65739;51.482;5.702;2024-01-30T12:17:36;12.80;99.90
76787;DHT22;65739;51.482;5.702;2024-01-30T12:20:07;12.80;99.90
76787;DHT22;65739;51.482;5.702;2024-01-30T12:22:37;12.90;99.90
76787;DHT22;65739;51.482;5.702;2024-01-30T12:25:11;12.90;99.90
76787;DHT22;65739;51.482;5.702;2024-01-30T12:27:38;12.80;99.90
76787;DHT22;65739;51.482;5.702;2024-01-30T12:30:08;12.80;99.90
76787;DHT22;65739;51.482;5.702;2024-01-30T12:32:44;12.80;99.90
76787;DHT22;65739;51.482;5.702;2024-01-30T12:35:11;12.70;99.90
76787;DHT22;65739;51.482;5.702;2024-01-30T12:37:38;12.70;99.90
76787;DHT22;65739;51.482;5.702;2024-01-30T12:40:04;12.70;99.90
76787;DHT22;65739;51.482;5.702;2024-01-30T12:42:29;12.80;99.90
76787;DHT22;65739;51.482;5.702;2024-01-30T12:44:57;12.90;99.90
76787;DHT22;65739;51.482;5.702;2024-01-30T12:47:25;13.00;99.90
76787;DHT22;65739;51.482;5.702;2024-01-30T12:49:51;12.90;99.90
76787;DHT22;65739;51.482;5.702;2024-01-30T12:52:19;12.80;99.90
76787;DHT22;65739;51.482;5.702;2024-01-30T12:54:45;12.10;99.90
76787;DHT22;65739;51.482;5.702;2024-01-30T12:57:11;12.00;99.90
76787;DHT22;65739;51.482;5.702;2024-01-30T12:59:37;11.90;99.90
76787;DHT22;65739;51.482;5.702;2024-01-30T13:02:05;11.80;99.90
76787;DHT22;65739;51.482;5.702;2024-01-30T13:04:34;12.10;99.90
76787;DHT22;65739;51.482;5.702;2024-01-30T13:07:00;12.40;99.90
76787;DHT22;65739;51.482;5.702;2024-01-30T13:09:54;12.70;99.90
76787;DHT22;65739;51.482;5.702;2024-01-30T13:15:35;13.30;99.90
76787;DHT22;65739;51.482;5.702;2024-01-30T13:28:37;12.80;99.90
76787;DHT22;65739;51.482;5.702;2024-01-30T13:31:08;12.10;99.90
76787;DHT22;65739;51.482;5.702;2024-01-30T13:33:36;11.80;99.90
76787;DHT22;65739;51.482;5.702;2024-01-30T13:36:02;11.60;99.90
76787;DHT22;65739;51.482;5.702;2024-01-30T13:38:28;11.70;99.90
76787;DHT22;65739;51.482;5.702;2024-01-30T13:40:56;11.70;99.90
76787;DHT22;65739;51.482;5.702;2024-01-30T13:43:22;11.60;99.90
76787;DHT22;65739;51.482;5.702;2024-01-30T13:45:47;11.50;99.90
76787;DHT22;65739;51.482;5.702;2024-01-30T13:48:13;11.60;99.90
76787;DHT22;65739;51.482;5.702;2024-01-30T13:50:41;12.00;99.90
76787;DHT22;65739;51.482;5.702;2024-01-30T13:53:07;12.50;99.90
76787;DHT22;65739;51.482;5.702;2024-01-30T13:55:33;12.70;99.90
76787;DHT22;65739;51.482;5.702;2024-01-30T13:57:59;12.80;99.90
76787;DHT22;65739;51.482;5.702;2024-01-30T14:00:27;12.80;99.90
76787;DHT22;65739;51.482;5.702;2024-01-30T14:02:52;12.90;99.90
76787;DHT22;65739;51.482;5.702;2024-01-30T14:05:20;13.00;99.90
76787;DHT22;65739;51.482;5.702;2024-01-30T14:07:47;12.70;99.90
76787;DHT22;65739;51.482;5.702;2024-01-30T14:10:20;12.60;99.90
76787;DHT22;65739;51.482;5.702;2024-01-30T14:12:46;12.30;99.90
76787;DHT22;65739;51.482;5.702;2024-01-30T14:15:14;12.10;99.90
76787;DHT22;65739;51.482;5.702;2024-01-30T14:17:46;11.90;99.90
76787;DHT22;65739;51.482;5.702;2024-01-30T14:20:14;11.90;99.90
76787;DHT22;65739;51.482;5.702;2024-01-30T14:22:42;11.80;99.90
76787;DHT22;65739;51.482;5.702;2024-01-30T14:25:08;11.80;99.90
76787;DHT22;65739;51.482;5.702;2024-01-30T14:27:37;11.70;99.90
76787;DHT22;65739;51.482;5.702;2024-01-30T14:30:03;11.60;99.90
76787;DHT22;65739;51.482;5.702;2024-01-30T14:32:29;11.50;99.90
76787;DHT22;65739;51.482;5.702;2024-01-30T14:34:55;11.50;99.90
76787;DHT22;65739;51.482;5.702;2024-01-30T14:37:21;11.40;99.90
76787;DHT22;65739;51.482;5.702;2024-01-30T14:39:50;11.40;99.90
76787;DHT22;65739;51.482;5.702;2024-01-30T14:45:48;11.20;99.90
76787;DHT22;65739;51.482;5.702;2024-01-30T14:48:35;11.20;99.90
76787;DHT22;65739;51.482;5.702;2024-01-30T14:51:11;11.10;99.90
76787;DHT22;65739;51.482;5.702;2024-01-30T14:53:37;11.20;99.90
76787;DHT22;65739;51.482;5.702;2024-01-30T14:56:13;11.10;99.90
76787;DHT22;65739;51.482;5.702;2024-01-30T14:58:38;11.10;99.90
76787;DHT22;65739;51.482;5.702;2024-01-30T15:01:04;11.00;99.90
76787;DHT22;65739;51.482;5.702;2024-01-30T15:03:30;10.90;99.90
76787;DHT22;65739;51.482;5.702;2024-01-30T15:06:16;10.90;99.90
76787;DHT22;65739;51.482;5.702;2024-01-30T15:08:55;10.80;99.90
76787;DHT22;65739;51.482;5.702;2024-01-30T15:11:32;10.70;99.90
76787;DHT22;65739;51.482;5.702;2024-01-30T15:14:34;10.60;99.90
76787;DHT22;65739;51.482;5.702;2024-01-30T15:23:19;10.30;99.90
76787;DHT22;65739;51.482;5.702;2024-01-30T15:26:15;10.20;99.90
76787;DHT22;65739;51.482;5.702;2024-01-30T15:39:44;9.80;99.90
76787;DHT22;65739;51.482;5.702;2024-01-30T15:48:59;9.30;99.90
76787;DHT22;65739;51.482;5.702;2024-01-30T15:55:09;9.20;99.90
76787;DHT22;65739;51.482;5.702;2024-01-30T16:08:05;9.20;99.90
76787;DHT22;65739;51.482;5.702;2024-01-30T16:11:16;9.20;99.90
76787;DHT22;65739;51.482;5.702;2024-01-30T16:14:00;9.20;99.90
76787;DHT22;65739;51.482;5.702;2024-01-30T16:16:36;9.20;99.90
76787;DHT22;65739;51.482;5.702;2024-01-30T16:19:16;9.20;99.90
76787;DHT22;65739;51.482;5.702;2024-01-30T16:21:51;9.20;99.90
76787;DHT22;65739;51.482;5.702;2024-01-30T16:24:45;9.20;99.90
76787;DHT22;65739;51.482;5.702;2024-01-30T16:27:25;9.10;99.90
76787;DHT22;65739;51.482;5.702;2024-01-30T16:56:49;9.10;99.90
76787;DHT22;65739;51.482;5.702;2024-01-30T17:07:02;9.00;99.90
76787;DHT22;65739;51.482;5.702;2024-01-30T17:09:42;8.90;99.90
76787;DHT22;65739;51.482;5.702;2024-01-30T17:12:37;8.90;99.90
76787;DHT22;65739;51.482;5.702;2024-01-30T17:15:29;8.80;99.90
76787;DHT22;65739;51.482;5.702;2024-01-30T17:18:04;8.80;99.90
76787;DHT22;65739;51.482;5.702;2024-01-30T17:20:30;8.80;99.90